Brasnorte, Brazil
Current Conditions -  °F | °C
As of 9:00 AM on Friday 28 Nov 2014 (Local Time) from SBVH Reporting Station
Haze Haze  
Wind Chill: 73°   Ceiling: 500
Heat Index: 73°   Visibility: 3mi
Dew Point: 72°   Wind: 5mph
Humidity: 94%   Direction: 360°N
Pressure: 29.97"   Gusts: NA
Location:  12.16°S, 57.98°W
Report Text: SBVH 281200Z 36004KT 5000 BR BKN005 SCT070 23/22 Q1015
Loading
Personal Weather Stations






























Interactive Weather Map New forecast layout! Learn more

10-Day Weather Forecast

Advertisements
Track Severe Weather on mobile